sensor_id;sensor_type;location;lat;lon;timestamp;P1;durP1;ratioP1;P2;durP2;ratioP2
36829;SDS011;22767;47.328;9.640;2023-03-31T00:00:24;7.30;;;4.18;;
36829;SDS011;22767;47.328;9.640;2023-03-31T00:03:11;6.55;;;4.55;;
36829;SDS011;22767;47.328;9.640;2023-03-31T00:06:05;8.52;;;4.32;;
36829;SDS011;22767;47.328;9.640;2023-03-31T00:08:59;8.60;;;4.13;;
36829;SDS011;22767;47.328;9.640;2023-03-31T00:11:47;8.45;;;4.53;;
36829;SDS011;22767;47.328;9.640;2023-03-31T00:14:33;6.78;;;4.88;;
36829;SDS011;22767;47.328;9.640;2023-03-31T00:17:20;6.85;;;4.60;;
36829;SDS011;22767;47.328;9.640;2023-03-31T00:20:06;5.32;;;3.95;;
36829;SDS011;22767;47.328;9.640;2023-03-31T00:22:56;5.65;;;4.30;;
36829;SDS011;22767;47.328;9.640;2023-03-31T00:25:43;7.50;;;4.32;;
36829;SDS011;22767;47.328;9.640;2023-03-31T00:28:30;9.90;;;4.80;;
36829;SDS011;22767;47.328;9.640;2023-03-31T00:31:16;7.13;;;3.97;;
36829;SDS011;22767;47.328;9.640;2023-03-31T00:34:10;7.43;;;4.10;;
36829;SDS011;22767;47.328;9.640;2023-03-31T00:36:56;7.65;;;4.35;;
36829;SDS011;22767;47.328;9.640;2023-03-31T00:39:46;7.88;;;4.25;;
36829;SDS011;22767;47.328;9.640;2023-03-31T00:42:33;8.32;;;3.75;;
36829;SDS011;22767;47.328;9.640;2023-03-31T00:45:25;7.30;;;4.38;;
36829;SDS011;22767;47.328;9.640;2023-03-31T00:48:15;6.50;;;4.53;;
36829;SDS011;22767;47.328;9.640;2023-03-31T00:51:03;6.20;;;4.30;;
36829;SDS011;22767;47.328;9.640;2023-03-31T00:53:52;10.27;;;3.83;;
36829;SDS011;22767;47.328;9.640;2023-03-31T00:56:42;6.05;;;4.18;;
36829;SDS011;22767;47.328;9.640;2023-03-31T00:59:34;7.15;;;4.35;;
36829;SDS011;22767;47.328;9.640;2023-03-31T01:02:29;6.05;;;4.45;;
36829;SDS011;22767;47.328;9.640;2023-03-31T01:05:33;5.53;;;3.90;;
36829;SDS011;22767;47.328;9.640;2023-03-31T01:08:23;7.20;;;4.60;;
36829;SDS011;22767;47.328;9.640;2023-03-31T01:11:11;9.25;;;4.30;;
36829;SDS011;22767;47.328;9.640;2023-03-31T01:13:58;9.93;;;4.45;;
36829;SDS011;22767;47.328;9.640;2023-03-31T01:16:44;7.68;;;4.13;;
36829;SDS011;22767;47.328;9.640;2023-03-31T01:19:44;8.35;;;5.05;;
36829;SDS011;22767;47.328;9.640;2023-03-31T01:31:30;8.10;;;4.35;;
36829;SDS011;22767;47.328;9.640;2023-03-31T01:40:30;6.63;;;3.97;;
36829;SDS011;22767;47.328;9.640;2023-03-31T01:43:25;6.13;;;3.78;;
36829;SDS011;22767;47.328;9.640;2023-03-31T01:46:34;7.20;;;3.72;;
36829;SDS011;22767;47.328;9.640;2023-03-31T01:49:33;9.52;;;5.13;;
36829;SDS011;22767;47.328;9.640;2023-03-31T01:55:35;14.80;;;7.60;;
36829;SDS011;22767;47.328;9.640;2023-03-31T01:58:27;9.93;;;6.05;;
36829;SDS011;22767;47.328;9.640;2023-03-31T02:01:19;8.70;;;5.07;;
36829;SDS011;22767;47.328;9.640;2023-03-31T02:04:08;7.45;;;4.15;;
36829;SDS011;22767;47.328;9.640;2023-03-31T02:06:57;8.30;;;4.43;;
36829;SDS011;22767;47.328;9.640;2023-03-31T02:09:46;7.40;;;4.32;;
36829;SDS011;22767;47.328;9.640;2023-03-31T02:12:33;6.55;;;4.18;;
36829;SDS011;22767;47.328;9.640;2023-03-31T02:15:23;7.35;;;4.10;;
36829;SDS011;22767;47.328;9.640;2023-03-31T02:18:11;8.07;;;4.40;;
36829;SDS011;22767;47.328;9.640;2023-03-31T02:21:01;9.75;;;4.35;;
36829;SDS011;22767;47.328;9.640;2023-03-31T02:23:49;7.07;;;4.10;;
36829;SDS011;22767;47.328;9.640;2023-03-31T02:26:53;7.68;;;4.00;;
36829;SDS011;22767;47.328;9.640;2023-03-31T02:29:40;5.82;;;3.75;;
36829;SDS011;22767;47.328;9.640;2023-03-31T02:32:45;9.20;;;4.10;;
36829;SDS011;22767;47.328;9.640;2023-03-31T02:35:31;6.63;;;4.57;;
36829;SDS011;22767;47.328;9.640;2023-03-31T02:38:19;5.55;;;3.92;;
36829;SDS011;22767;47.328;9.640;2023-03-31T02:41:06;6.15;;;4.30;;
36829;SDS011;22767;47.328;9.640;2023-03-31T02:43:52;7.03;;;4.55;;
36829;SDS011;22767;47.328;9.640;2023-03-31T02:46:42;9.27;;;4.65;;
36829;SDS011;22767;47.328;9.640;2023-03-31T02:49:29;7.85;;;4.68;;
36829;SDS011;22767;47.328;9.640;2023-03-31T03:07:12;6.47;;;4.10;;
36829;SDS011;22767;47.328;9.640;2023-03-31T03:13:41;9.15;;;4.00;;
36829;SDS011;22767;47.328;9.640;2023-03-31T03:16:12;6.47;;;3.97;;
36829;SDS011;22767;47.328;9.640;2023-03-31T03:19:04;6.60;;;3.95;;
36829;SDS011;22767;47.328;9.640;2023-03-31T03:21:51;7.95;;;3.70;;
36829;SDS011;22767;47.328;9.640;2023-03-31T03:24:37;6.47;;;3.88;;
36829;SDS011;22767;47.328;9.640;2023-03-31T03:27:24;6.78;;;3.75;;
36829;SDS011;22767;47.328;9.640;2023-03-31T03:30:11;7.07;;;4.00;;
36829;SDS011;22767;47.328;9.640;2023-03-31T03:32:57;6.45;;;4.00;;
36829;SDS011;22767;47.328;9.640;2023-03-31T03:35:44;7.25;;;4.15;;
36829;SDS011;22767;47.328;9.640;2023-03-31T03:38:30;7.38;;;3.88;;
36829;SDS011;22767;47.328;9.640;2023-03-31T03:41:16;6.80;;;3.80;;
36829;SDS011;22767;47.328;9.640;2023-03-31T03:44:09;5.30;;;3.65;;
36829;SDS011;22767;47.328;9.640;2023-03-31T03:46:56;5.25;;;3.90;;
36829;SDS011;22767;47.328;9.640;2023-03-31T03:49:48;6.47;;;3.80;;
36829;SDS011;22767;47.328;9.640;2023-03-31T03:55:21;6.45;;;3.67;;
36829;SDS011;22767;47.328;9.640;2023-03-31T03:58:07;5.88;;;3.90;;
36829;SDS011;22767;47.328;9.640;2023-03-31T04:00:54;5.93;;;3.65;;
36829;SDS011;22767;47.328;9.640;2023-03-31T04:03:41;7.55;;;3.90;;
36829;SDS011;22767;47.328;9.640;2023-03-31T04:06:27;7.57;;;3.97;;
36829;SDS011;22767;47.328;9.640;2023-03-31T04:09:14;7.03;;;4.03;;
36829;SDS011;22767;47.328;9.640;2023-03-31T04:12:00;7.15;;;3.78;;
36829;SDS011;22767;47.328;9.640;2023-03-31T04:14:47;5.65;;;3.97;;
36829;SDS011;22767;47.328;9.640;2023-03-31T04:17:39;5.78;;;3.47;;
36829;SDS011;22767;47.328;9.640;2023-03-31T04:20:26;6.15;;;3.80;;
36829;SDS011;22767;47.328;9.640;2023-03-31T04:23:14;5.85;;;3.90;;
36829;SDS011;22767;47.328;9.640;2023-03-31T04:26:03;7.10;;;3.80;;
36829;SDS011;22767;47.328;9.640;2023-03-31T04:28:53;6.43;;;3.40;;
36829;SDS011;22767;47.328;9.640;2023-03-31T04:31:44;7.35;;;4.20;;
36829;SDS011;22767;47.328;9.640;2023-03-31T04:34:30;5.75;;;3.72;;
36829;SDS011;22767;47.328;9.640;2023-03-31T04:37:20;5.65;;;3.50;;
36829;SDS011;22767;47.328;9.640;2023-03-31T04:40:06;6.95;;;3.80;;
36829;SDS011;22767;47.328;9.640;2023-03-31T04:42:54;8.45;;;3.83;;
36829;SDS011;22767;47.328;9.640;2023-03-31T04:45:46;5.43;;;4.05;;
36829;SDS011;22767;47.328;9.640;2023-03-31T04:48:33;6.88;;;4.10;;
36829;SDS011;22767;47.328;9.640;2023-03-31T04:51:26;6.53;;;3.95;;
36829;SDS011;22767;47.328;9.640;2023-03-31T04:54:12;5.68;;;4.03;;
36829;SDS011;22767;47.328;9.640;2023-03-31T04:56:58;6.35;;;3.88;;
36829;SDS011;22767;47.328;9.640;2023-03-31T04:59:45;7.78;;;3.95;;
36829;SDS011;22767;47.328;9.640;2023-03-31T05:02:31;6.60;;;3.75;;
36829;SDS011;22767;47.328;9.640;2023-03-31T05:05:18;6.15;;;3.75;;
36829;SDS011;22767;47.328;9.640;2023-03-31T05:08:04;6.35;;;3.90;;
36829;SDS011;22767;47.328;9.640;2023-03-31T05:10:50;6.88;;;4.22;;
36829;SDS011;22767;47.328;9.640;2023-03-31T05:13:37;5.93;;;4.07;;
36829;SDS011;22767;47.328;9.640;2023-03-31T05:16:23;5.97;;;3.90;;
36829;SDS011;22767;47.328;9.640;2023-03-31T05:19:16;5.10;;;3.60;;
36829;SDS011;22767;47.328;9.640;2023-03-31T05:24:55;8.43;;;4.00;;
36829;SDS011;22767;47.328;9.640;2023-03-31T05:27:42;8.43;;;3.55;;
36829;SDS011;22767;47.328;9.640;2023-03-31T05:30:28;5.28;;;3.42;;
36829;SDS011;22767;47.328;9.640;2023-03-31T05:33:15;7.47;;;3.42;;
36829;SDS011;22767;47.328;9.640;2023-03-31T05:36:01;6.88;;;3.65;;
36829;SDS011;22767;47.328;9.640;2023-03-31T05:38:47;6.13;;;3.60;;
36829;SDS011;22767;47.328;9.640;2023-03-31T05:41:34;5.43;;;3.55;;
36829;SDS011;22767;47.328;9.640;2023-03-31T05:44:20;8.55;;;3.38;;
36829;SDS011;22767;47.328;9.640;2023-03-31T05:47:07;5.70;;;3.28;;
36829;SDS011;22767;47.328;9.640;2023-03-31T05:49:53;8.48;;;3.40;;
36829;SDS011;22767;47.328;9.640;2023-03-31T05:52:40;7.28;;;3.05;;
36829;SDS011;22767;47.328;9.640;2023-03-31T05:55:26;8.13;;;2.85;;
36829;SDS011;22767;47.328;9.640;2023-03-31T05:58:19;5.90;;;3.08;;
36829;SDS011;22767;47.328;9.640;2023-03-31T06:01:10;5.55;;;3.00;;
36829;SDS011;22767;47.328;9.640;2023-03-31T06:03:56;7.72;;;3.15;;
36829;SDS011;22767;47.328;9.640;2023-03-31T06:06:43;3.88;;;2.60;;
36829;SDS011;22767;47.328;9.640;2023-03-31T06:09:30;7.40;;;2.70;;
36829;SDS011;22767;47.328;9.640;2023-03-31T06:12:23;4.35;;;2.58;;
36829;SDS011;22767;47.328;9.640;2023-03-31T06:15:10;5.40;;;2.25;;
36829;SDS011;22767;47.328;9.640;2023-03-31T06:18:03;2.65;;;1.80;;
36829;SDS011;22767;47.328;9.640;2023-03-31T06:20:51;2.47;;;2.10;;
36829;SDS011;22767;47.328;9.640;2023-03-31T06:23:38;5.07;;;2.00;;
36829;SDS011;22767;47.328;9.640;2023-03-31T06:26:31;4.13;;;1.70;;
36829;SDS011;22767;47.328;9.640;2023-03-31T06:29:18;4.38;;;2.13;;
36829;SDS011;22767;47.328;9.640;2023-03-31T06:32:04;3.90;;;2.22;;
36829;SDS011;22767;47.328;9.640;2023-03-31T06:34:51;6.65;;;2.38;;
36829;SDS011;22767;47.328;9.640;2023-03-31T06:37:37;4.22;;;1.70;;
36829;SDS011;22767;47.328;9.640;2023-03-31T06:40:30;4.13;;;1.70;;
36829;SDS011;22767;47.328;9.640;2023-03-31T06:43:17;3.53;;;1.90;;
36829;SDS011;22767;47.328;9.640;2023-03-31T06:46:03;2.55;;;1.80;;
36829;SDS011;22767;47.328;9.640;2023-03-31T06:48:50;3.60;;;1.90;;
36829;SDS011;22767;47.328;9.640;2023-03-31T06:51:43;3.08;;;1.63;;
36829;SDS011;22767;47.328;9.640;2023-03-31T06:54:30;3.00;;;1.65;;
36829;SDS011;22767;47.328;9.640;2023-03-31T06:57:16;2.67;;;1.60;;
36829;SDS011;22767;47.328;9.640;2023-03-31T07:00:03;3.20;;;1.50;;
36829;SDS011;22767;47.328;9.640;2023-03-31T07:02:50;3.30;;;1.73;;
36829;SDS011;22767;47.328;9.640;2023-03-31T07:05:36;5.57;;;1.50;;
36829;SDS011;22767;47.328;9.640;2023-03-31T07:08:23;4.82;;;1.67;;
36829;SDS011;22767;47.328;9.640;2023-03-31T07:11:16;2.72;;;1.60;;
36829;SDS011;22767;47.328;9.640;2023-03-31T07:14:03;3.92;;;1.58;;
36829;SDS011;22767;47.328;9.640;2023-03-31T07:16:49;4.30;;;1.90;;
36829;SDS011;22767;47.328;9.640;2023-03-31T07:19:36;3.95;;;1.83;;
36829;SDS011;22767;47.328;9.640;2023-03-31T07:22:22;3.65;;;1.40;;
36829;SDS011;22767;47.328;9.640;2023-03-31T07:25:16;2.15;;;1.38;;
36829;SDS011;22767;47.328;9.640;2023-03-31T07:28:03;2.05;;;1.20;;
36829;SDS011;22767;47.328;9.640;2023-03-31T07:30:50;2.88;;;1.63;;
36829;SDS011;22767;47.328;9.640;2023-03-31T07:33:36;4.07;;;1.25;;
36829;SDS011;22767;47.328;9.640;2023-03-31T07:36:29;3.85;;;1.38;;
36829;SDS011;22767;47.328;9.640;2023-03-31T07:39:16;2.25;;;1.27;;
36829;SDS011;22767;47.328;9.640;2023-03-31T07:42:03;4.93;;;1.67;;
36829;SDS011;22767;47.328;9.640;2023-03-31T07:44:50;2.97;;;1.40;;
36829;SDS011;22767;47.328;9.640;2023-03-31T07:47:36;1.77;;;1.35;;
36829;SDS011;22767;47.328;9.640;2023-03-31T07:50:24;3.80;;;1.48;;
36829;SDS011;22767;47.328;9.640;2023-03-31T07:53:10;2.45;;;1.40;;
36829;SDS011;22767;47.328;9.640;2023-03-31T07:55:59;3.35;;;1.70;;
36829;SDS011;22767;47.328;9.640;2023-03-31T07:58:52;5.32;;;2.20;;
36829;SDS011;22767;47.328;9.640;2023-03-31T08:01:39;3.13;;;2.28;;
36829;SDS011;22767;47.328;9.640;2023-03-31T08:04:25;3.85;;;2.40;;
36829;SDS011;22767;47.328;9.640;2023-03-31T08:07:13;5.53;;;2.97;;
36829;SDS011;22767;47.328;9.640;2023-03-31T08:09:59;10.45;;;5.47;;
36829;SDS011;22767;47.328;9.640;2023-03-31T08:12:46;9.80;;;7.00;;
36829;SDS011;22767;47.328;9.640;2023-03-31T08:15:32;8.88;;;6.03;;
36829;SDS011;22767;47.328;9.640;2023-03-31T08:18:19;10.60;;;6.63;;
36829;SDS011;22767;47.328;9.640;2023-03-31T08:21:05;7.80;;;5.60;;
36829;SDS011;22767;47.328;9.640;2023-03-31T08:23:54;6.15;;;5.30;;
36829;SDS011;22767;47.328;9.640;2023-03-31T08:26:47;6.88;;;4.80;;
36829;SDS011;22767;47.328;9.640;2023-03-31T08:29:33;5.20;;;4.00;;
36829;SDS011;22767;47.328;9.640;2023-03-31T08:32:23;4.85;;;3.85;;
36829;SDS011;22767;47.328;9.640;2023-03-31T08:35:09;4.85;;;3.75;;
36829;SDS011;22767;47.328;9.640;2023-03-31T08:38:02;4.07;;;2.75;;
36829;SDS011;22767;47.328;9.640;2023-03-31T08:40:49;3.95;;;2.60;;
36829;SDS011;22767;47.328;9.640;2023-03-31T08:43:39;4.97;;;3.40;;
36829;SDS011;22767;47.328;9.640;2023-03-31T08:46:27;4.03;;;2.43;;
36829;SDS011;22767;47.328;9.640;2023-03-31T08:49:15;4.43;;;3.00;;
36829;SDS011;22767;47.328;9.640;2023-03-31T08:52:04;6.75;;;2.97;;
36829;SDS011;22767;47.328;9.640;2023-03-31T08:54:55;3.40;;;2.65;;
36829;SDS011;22767;47.328;9.640;2023-03-31T08:58:00;3.60;;;2.75;;
36829;SDS011;22767;47.328;9.640;2023-03-31T09:00:50;3.67;;;2.60;;
36829;SDS011;22767;47.328;9.640;2023-03-31T09:03:45;3.63;;;2.30;;
36829;SDS011;22767;47.328;9.640;2023-03-31T09:09:42;2.67;;;2.13;;
36829;SDS011;22767;47.328;9.640;2023-03-31T09:16:19;3.50;;;2.10;;
36829;SDS011;22767;47.328;9.640;2023-03-31T09:18:46;6.07;;;2.80;;
36829;SDS011;22767;47.328;9.640;2023-03-31T09:21:46;3.97;;;2.40;;
36829;SDS011;22767;47.328;9.640;2023-03-31T09:24:35;6.38;;;2.50;;
36829;SDS011;22767;47.328;9.640;2023-03-31T09:27:26;3.08;;;2.42;;
36829;SDS011;22767;47.328;9.640;2023-03-31T09:30:23;4.72;;;2.90;;
36829;SDS011;22767;47.328;9.640;2023-03-31T09:33:12;4.10;;;2.70;;
36829;SDS011;22767;47.328;9.640;2023-03-31T09:36:07;3.80;;;2.83;;
36829;SDS011;22767;47.328;9.640;2023-03-31T09:38:58;6.78;;;3.88;;
36829;SDS011;22767;47.328;9.640;2023-03-31T09:41:45;5.70;;;3.78;;
36829;SDS011;22767;47.328;9.640;2023-03-31T09:44:37;9.82;;;4.25;;
36829;SDS011;22767;47.328;9.640;2023-03-31T09:50:11;5.57;;;3.17;;
36829;SDS011;22767;47.328;9.640;2023-03-31T09:52:59;7.07;;;3.72;;
36829;SDS011;22767;47.328;9.640;2023-03-31T09:55:53;5.93;;;3.85;;
36829;SDS011;22767;47.328;9.640;2023-03-31T09:58:42;4.72;;;3.35;;
36829;SDS011;22767;47.328;9.640;2023-03-31T10:01:28;6.32;;;3.35;;
36829;SDS011;22767;47.328;9.640;2023-03-31T10:04:24;4.03;;;3.20;;
36829;SDS011;22767;47.328;9.640;2023-03-31T10:07:11;6.35;;;3.33;;
36829;SDS011;22767;47.328;9.640;2023-03-31T10:09:58;4.90;;;3.42;;
36829;SDS011;22767;47.328;9.640;2023-03-31T10:12:49;4.00;;;3.22;;
36829;SDS011;22767;47.328;9.640;2023-03-31T10:15:36;10.18;;;6.00;;
36829;SDS011;22767;47.328;9.640;2023-03-31T10:18:31;11.15;;;6.32;;
36829;SDS011;22767;47.328;9.640;2023-03-31T10:21:22;10.35;;;5.05;;
36829;SDS011;22767;47.328;9.640;2023-03-31T10:24:22;5.57;;;3.65;;
36829;SDS011;22767;47.328;9.640;2023-03-31T10:27:28;7.07;;;4.03;;
36829;SDS011;22767;47.328;9.640;2023-03-31T10:30:17;6.53;;;3.85;;
36829;SDS011;22767;47.328;9.640;2023-03-31T10:33:05;4.93;;;3.88;;
36829;SDS011;22767;47.328;9.640;2023-03-31T10:35:58;5.28;;;3.80;;
36829;SDS011;22767;47.328;9.640;2023-03-31T10:38:51;5.30;;;3.80;;
36829;SDS011;22767;47.328;9.640;2023-03-31T10:41:38;6.18;;;3.17;;
36829;SDS011;22767;47.328;9.640;2023-03-31T10:50:03;4.72;;;2.55;;
36829;SDS011;22767;47.328;9.640;2023-03-31T10:52:49;3.67;;;2.80;;
36829;SDS011;22767;47.328;9.640;2023-03-31T11:10:31;3.35;;;2.50;;
36829;SDS011;22767;47.328;9.640;2023-03-31T11:13:37;3.92;;;2.60;;
36829;SDS011;22767;47.328;9.640;2023-03-31T11:16:32;3.60;;;2.50;;
36829;SDS011;22767;47.328;9.640;2023-03-31T11:22:08;4.97;;;3.13;;
36829;SDS011;22767;47.328;9.640;2023-03-31T11:25:09;3.83;;;2.97;;
36829;SDS011;22767;47.328;9.640;2023-03-31T11:33:43;2.58;;;2.20;;
36829;SDS011;22767;47.328;9.640;2023-03-31T11:36:40;2.70;;;2.35;;
36829;SDS011;22767;47.328;9.640;2023-03-31T11:42:33;5.15;;;2.40;;
36829;SDS011;22767;47.328;9.640;2023-03-31T11:48:27;2.80;;;2.47;;
36829;SDS011;22767;47.328;9.640;2023-03-31T11:51:18;3.63;;;2.30;;
36829;SDS011;22767;47.328;9.640;2023-03-31T11:54:06;4.97;;;2.78;;
36829;SDS011;22767;47.328;9.640;2023-03-31T11:56:56;5.00;;;2.60;;
36829;SDS011;22767;47.328;9.640;2023-03-31T11:59:53;3.90;;;2.78;;
36829;SDS011;22767;47.328;9.640;2023-03-31T12:05:50;2.78;;;2.30;;
36829;SDS011;22767;47.328;9.640;2023-03-31T12:08:38;3.53;;;2.22;;
36829;SDS011;22767;47.328;9.640;2023-03-31T12:11:28;2.72;;;2.40;;
36829;SDS011;22767;47.328;9.640;2023-03-31T12:14:52;3.95;;;2.35;;
36829;SDS011;22767;47.328;9.640;2023-03-31T12:17:30;3.58;;;2.30;;
36829;SDS011;22767;47.328;9.640;2023-03-31T12:20:24;2.55;;;2.30;;
36829;SDS011;22767;47.328;9.640;2023-03-31T12:22:52;3.10;;;2.10;;
36829;SDS011;22767;47.328;9.640;2023-03-31T12:25:20;3.97;;;2.50;;
36829;SDS011;22767;47.328;9.640;2023-03-31T12:27:47;5.47;;;2.95;;
36829;SDS011;22767;47.328;9.640;2023-03-31T12:32:42;5.72;;;3.00;;
36829;SDS011;22767;47.328;9.640;2023-03-31T12:37:56;5.72;;;2.90;;
36829;SDS011;22767;47.328;9.640;2023-03-31T12:40:40;4.05;;;2.60;;
36829;SDS011;22767;47.328;9.640;2023-03-31T12:51:16;3.35;;;2.00;;
36829;SDS011;22767;47.328;9.640;2023-03-31T12:56:23;3.58;;;2.00;;
36829;SDS011;22767;47.328;9.640;2023-03-31T12:58:50;3.38;;;2.10;;
36829;SDS011;22767;47.328;9.640;2023-03-31T13:06:57;4.78;;;2.03;;
36829;SDS011;22767;47.328;9.640;2023-03-31T13:09:04;3.05;;;1.80;;
36829;SDS011;22767;47.328;9.640;2023-03-31T13:11:44;4.60;;;2.10;;
36829;SDS011;22767;47.328;9.640;2023-03-31T13:14:21;4.22;;;2.45;;
36829;SDS011;22767;47.328;9.640;2023-03-31T13:16:48;2.08;;;1.90;;
36829;SDS011;22767;47.328;9.640;2023-03-31T13:19:36;3.35;;;2.03;;
36829;SDS011;22767;47.328;9.640;2023-03-31T13:22:03;2.60;;;1.88;;
36829;SDS011;22767;47.328;9.640;2023-03-31T13:24:30;4.07;;;1.92;;
36829;SDS011;22767;47.328;9.640;2023-03-31T13:26:57;2.05;;;1.67;;
36829;SDS011;22767;47.328;9.640;2023-03-31T13:29:26;3.78;;;1.52;;
36829;SDS011;22767;47.328;9.640;2023-03-31T13:52:25;4.32;;;1.42;;
36829;SDS011;22767;47.328;9.640;2023-03-31T13:55:08;3.67;;;1.80;;
36829;SDS011;22767;47.328;9.640;2023-03-31T14:00:15;2.90;;;1.15;;
36829;SDS011;22767;47.328;9.640;2023-03-31T14:05:49;1.95;;;1.33;;
36829;SDS011;22767;47.328;9.640;2023-03-31T14:16:26;2.65;;;1.65;;
36829;SDS011;22767;47.328;9.640;2023-03-31T14:18:54;7.53;;;1.85;;
36829;SDS011;22767;47.328;9.640;2023-03-31T14:21:29;4.25;;;1.65;;
36829;SDS011;22767;47.328;9.640;2023-03-31T14:24:06;2.80;;;1.48;;
36829;SDS011;22767;47.328;9.640;2023-03-31T14:26:50;1.52;;;0.98;;
36829;SDS011;22767;47.328;9.640;2023-03-31T14:32:10;1.88;;;0.50;;
36829;SDS011;22767;47.328;9.640;2023-03-31T14:37:23;1.15;;;0.50;;
36829;SDS011;22767;47.328;9.640;2023-03-31T14:39:52;1.80;;;0.70;;
36829;SDS011;22767;47.328;9.640;2023-03-31T14:42:38;1.15;;;0.60;;
36829;SDS011;22767;47.328;9.640;2023-03-31T14:45:10;0.47;;;0.30;;
36829;SDS011;22767;47.328;9.640;2023-03-31T14:47:39;2.17;;;0.50;;
36829;SDS011;22767;47.328;9.640;2023-03-31T14:52:38;0.13;;;0.13;;
36829;SDS011;22767;47.328;9.640;2023-03-31T14:55:04;4.80;;;0.20;;
36829;SDS011;22767;47.328;9.640;2023-03-31T14:57:39;0.75;;;0.20;;
36829;SDS011;22767;47.328;9.640;2023-03-31T15:00:06;0.50;;;0.20;;
36829;SDS011;22767;47.328;9.640;2023-03-31T15:02:34;0.80;;;0.20;;
36829;SDS011;22767;47.328;9.640;2023-03-31T15:05:02;0.93;;;0.20;;
36829;SDS011;22767;47.328;9.640;2023-03-31T15:07:28;0.77;;;0.20;;
36829;SDS011;22767;47.328;9.640;2023-03-31T15:09:55;0.17;;;0.10;;
36829;SDS011;22767;47.328;9.640;2023-03-31T15:12:21;0.40;;;0.17;;
36829;SDS011;22767;47.328;9.640;2023-03-31T15:14:51;1.05;;;0.30;;
36829;SDS011;22767;47.328;9.640;2023-03-31T15:17:23;0.95;;;0.20;;
36829;SDS011;22767;47.328;9.640;2023-03-31T15:19:54;0.40;;;0.30;;
36829;SDS011;22767;47.328;9.640;2023-03-31T15:22:21;0.55;;;0.22;;
36829;SDS011;22767;47.328;9.640;2023-03-31T15:24:47;1.20;;;0.38;;
36829;SDS011;22767;47.328;9.640;2023-03-31T15:27:15;0.57;;;0.20;;
36829;SDS011;22767;47.328;9.640;2023-03-31T15:29:45;1.05;;;0.30;;
36829;SDS011;22767;47.328;9.640;2023-03-31T15:32:13;0.80;;;0.20;;
36829;SDS011;22767;47.328;9.640;2023-03-31T15:34:41;1.02;;;0.40;;
36829;SDS011;22767;47.328;9.640;2023-03-31T15:37:07;0.93;;;0.40;;
36829;SDS011;22767;47.328;9.640;2023-03-31T15:39:34;0.88;;;0.38;;
36829;SDS011;22767;47.328;9.640;2023-03-31T15:42:04;1.05;;;0.30;;
36829;SDS011;22767;47.328;9.640;2023-03-31T15:44:42;0.38;;;0.28;;
36829;SDS011;22767;47.328;9.640;2023-03-31T15:49:35;2.55;;;0.38;;
36829;SDS011;22767;47.328;9.640;2023-03-31T15:52:01;1.30;;;0.20;;
36829;SDS011;22767;47.328;9.640;2023-03-31T15:54:37;1.25;;;0.50;;
36829;SDS011;22767;47.328;9.640;2023-03-31T15:57:05;1.45;;;0.55;;
36829;SDS011;22767;47.328;9.640;2023-03-31T16:02:15;1.70;;;0.30;;
36829;SDS011;22767;47.328;9.640;2023-03-31T16:04:42;0.95;;;0.30;;
36829;SDS011;22767;47.328;9.640;2023-03-31T16:07:13;1.83;;;0.40;;
36829;SDS011;22767;47.328;9.640;2023-03-31T16:12:10;2.25;;;0.60;;
36829;SDS011;22767;47.328;9.640;2023-03-31T16:14:38;1.98;;;0.60;;
36829;SDS011;22767;47.328;9.640;2023-03-31T16:17:10;2.22;;;0.57;;
36829;SDS011;22767;47.328;9.640;2023-03-31T16:19:48;2.22;;;0.60;;
36829;SDS011;22767;47.328;9.640;2023-03-31T16:22:17;2.45;;;0.60;;
36829;SDS011;22767;47.328;9.640;2023-03-31T16:24:44;2.15;;;0.60;;
36829;SDS011;22767;47.328;9.640;2023-03-31T16:27:11;2.97;;;0.65;;
36829;SDS011;22767;47.328;9.640;2023-03-31T16:29:37;2.28;;;0.60;;
36829;SDS011;22767;47.328;9.640;2023-03-31T16:32:07;2.45;;;0.70;;
36829;SDS011;22767;47.328;9.640;2023-03-31T16:34:34;1.98;;;0.60;;
36829;SDS011;22767;47.328;9.640;2023-03-31T16:37:15;4.47;;;0.60;;
36829;SDS011;22767;47.328;9.640;2023-03-31T16:39:42;2.10;;;0.60;;
36829;SDS011;22767;47.328;9.640;2023-03-31T16:42:08;3.55;;;0.80;;
36829;SDS011;22767;47.328;9.640;2023-03-31T16:44:34;1.33;;;0.40;;
36829;SDS011;22767;47.328;9.640;2023-03-31T16:47:00;0.35;;;0.20;;
36829;SDS011;22767;47.328;9.640;2023-03-31T16:49:26;1.30;;;0.40;;
36829;SDS011;22767;47.328;9.640;2023-03-31T16:51:52;1.65;;;0.20;;
36829;SDS011;22767;47.328;9.640;2023-03-31T16:54:18;1.02;;;0.35;;
36829;SDS011;22767;47.328;9.640;2023-03-31T16:56:45;1.30;;;0.30;;
36829;SDS011;22767;47.328;9.640;2023-03-31T16:59:12;1.05;;;0.30;;
36829;SDS011;22767;47.328;9.640;2023-03-31T17:01:38;0.35;;;0.20;;
36829;SDS011;22767;47.328;9.640;2023-03-31T17:04:05;1.65;;;0.20;;
36829;SDS011;22767;47.328;9.640;2023-03-31T17:06:31;1.13;;;0.22;;
36829;SDS011;22767;47.328;9.640;2023-03-31T17:08:57;1.58;;;0.17;;
36829;SDS011;22767;47.328;9.640;2023-03-31T17:11:24;1.58;;;0.30;;
36829;SDS011;22767;47.328;9.640;2023-03-31T17:13:51;0.85;;;0.25;;
36829;SDS011;22767;47.328;9.640;2023-03-31T17:16:19;1.55;;;0.38;;
36829;SDS011;22767;47.328;9.640;2023-03-31T17:18:48;1.33;;;0.20;;
36829;SDS011;22767;47.328;9.640;2023-03-31T17:21:15;1.42;;;0.40;;
36829;SDS011;22767;47.328;9.640;2023-03-31T17:23:44;2.05;;;0.30;;
36829;SDS011;22767;47.328;9.640;2023-03-31T17:26:10;1.13;;;0.38;;
36829;SDS011;22767;47.328;9.640;2023-03-31T17:28:37;0.95;;;0.40;;
36829;SDS011;22767;47.328;9.640;2023-03-31T17:31:13;1.67;;;0.40;;
36829;SDS011;22767;47.328;9.640;2023-03-31T17:33:39;1.10;;;0.60;;
36829;SDS011;22767;47.328;9.640;2023-03-31T17:36:06;1.60;;;0.57;;
36829;SDS011;22767;47.328;9.640;2023-03-31T17:38:32;1.10;;;0.20;;
36829;SDS011;22767;47.328;9.640;2023-03-31T17:41:02;1.65;;;0.35;;
36829;SDS011;22767;47.328;9.640;2023-03-31T17:43:29;1.38;;;0.47;;
36829;SDS011;22767;47.328;9.640;2023-03-31T17:45:59;1.38;;;0.40;;
36829;SDS011;22767;47.328;9.640;2023-03-31T17:48:26;1.33;;;0.40;;
36829;SDS011;22767;47.328;9.640;2023-03-31T17:50:53;1.83;;;0.40;;
36829;SDS011;22767;47.328;9.640;2023-03-31T17:53:19;0.85;;;0.40;;
36829;SDS011;22767;47.328;9.640;2023-03-31T17:55:45;0.88;;;0.55;;
36829;SDS011;22767;47.328;9.640;2023-03-31T17:58:12;0.73;;;0.30;;
36829;SDS011;22767;47.328;9.640;2023-03-31T18:00:39;3.08;;;0.45;;
36829;SDS011;22767;47.328;9.640;2023-03-31T18:03:05;1.70;;;0.47;;
36829;SDS011;22767;47.328;9.640;2023-03-31T18:05:34;2.38;;;0.50;;
36829;SDS011;22767;47.328;9.640;2023-03-31T18:08:01;1.60;;;0.50;;
36829;SDS011;22767;47.328;9.640;2023-03-31T18:10:27;2.38;;;0.73;;
36829;SDS011;22767;47.328;9.640;2023-03-31T18:12:54;1.52;;;0.60;;
36829;SDS011;22767;47.328;9.640;2023-03-31T18:15:23;3.03;;;0.57;;
36829;SDS011;22767;47.328;9.640;2023-03-31T18:17:49;2.75;;;0.70;;
36829;SDS011;22767;47.328;9.640;2023-03-31T18:20:16;3.75;;;0.60;;
36829;SDS011;22767;47.328;9.640;2023-03-31T18:22:42;1.67;;;0.40;;
36829;SDS011;22767;47.328;9.640;2023-03-31T18:25:08;1.23;;;0.40;;
36829;SDS011;22767;47.328;9.640;2023-03-31T18:27:34;1.42;;;0.40;;
36829;SDS011;22767;47.328;9.640;2023-03-31T18:30:02;3.35;;;0.60;;
36829;SDS011;22767;47.328;9.640;2023-03-31T18:32:28;3.85;;;0.30;;
36829;SDS011;22767;47.328;9.640;2023-03-31T18:34:54;2.28;;;0.60;;
36829;SDS011;22767;47.328;9.640;2023-03-31T18:37:22;0.85;;;0.38;;
36829;SDS011;22767;47.328;9.640;2023-03-31T18:39:49;1.20;;;0.50;;
36829;SDS011;22767;47.328;9.640;2023-03-31T18:42:15;2.22;;;0.50;;
36829;SDS011;22767;47.328;9.640;2023-03-31T18:44:43;2.10;;;0.55;;
36829;SDS011;22767;47.328;9.640;2023-03-31T18:47:10;1.33;;;0.60;;
36829;SDS011;22767;47.328;9.640;2023-03-31T18:49:37;1.15;;;0.50;;
36829;SDS011;22767;47.328;9.640;2023-03-31T18:52:03;2.17;;;0.50;;
36829;SDS011;22767;47.328;9.640;2023-03-31T18:54:30;2.35;;;0.60;;
36829;SDS011;22767;47.328;9.640;2023-03-31T18:56:56;3.70;;;0.57;;